Terminal Aerodrome Forecast
Issued by NWS

Home | Current Version | Previous Version | Text Only | Print | Product List | Glossary Off
Versions: 1 2 3 4 5 6 7 8 9 10 11 12 13 14 15 16 17 18 19 20 21

243
FTUS43 KTOP 031725
TAFMHK
TAF
KMHK 031725Z 0318/0418 08005KT P6SM VCSH OVC040
     FM032000 09004KT 6SM -SHRA BR OVC030
     FM040300 00000KT 3SM -SHRA BR OVC018
     FM040700 VRB03KT 1 1/2SM -SHRA BR OVC008
     FM040900 VRB03KT 4SM BR BKN008
     FM041500 VRB03KT P6SM SCT020=

USA.gov is the U.S. government's official web portal to all federal, state and local government web resources and services.